Airfield :
LOGIN :

Register | Disclaimer

   EN    FR    IT 

 










Legend :    VFR   Marginal VFR   IFR   Intensive IFR   Very Intensive IFR
Visi :
Ceiling :
>= 8 km
>= 3000ft
5 to 8 km
1000 to 3000 ft
1500m to 5 km
500 to 1000 ft
800 to 1500m
200 to 500 ft
< 800m
< 200 ft
Symbols :   Thunderstorms  Fog  Heavy snow  Heavy precipitations  Wind > 20 kt
SIGMETs :     Misc.  Thunderstorms  Icing  Turbulence  Mountain Waves  Volcanic Ashes







- Airport Elevation : 74 ft
- IATA code : EIN


EHEH - Eindhoven

CURRENT METAR :
  • 161230Z AUTO 20012KT 9999 BKN015 OVC019 06/03 Q1008 WHT 22015KT 9999 FEW012 SCT015 BKN017

EXPIRED METARs :
  • 161225Z AUTO 20014KT 9999 FEW013 OVC016 06/03 Q1008 WHT 22015KT 9999 FEW012 SCT015 BKN017
  • 161155Z AUTO 20013KT 180V240 9999 FEW010 BKN014 OVC016 06/03 Q1009 GRN 22015KT 9999 FEW012 SCT015 BKN017
  • 161139Z AUTO 21015KT 9999 BKN014 OVC016 06/03 Q1009 GRN 22015KT 9999 FEW012 SCT015 BKN017
  • 161135Z AUTO 21016KT 9999 FEW012 OVC015 06/03 Q1009 WHT 22015KT 9999 FEW012 SCT015 BKN017
  • 161125Z AUTO 20016KT 180V240 9999 FEW012/// OVC015/// 06/03 Q1009 WHT 22015KT 9999 FEW012 SCT015 BKN017
  • 161112Z AUTO 21016KT 9999 OVC015/// 06/03 Q1009 WHT 22012KT 9999 SCT015 BKN017
  • 161100Z AUTO 20012KT 9999 SCT014 OVC017 06/03 Q1009 GRN 22012KT 9999 FEW020 OVC030 TEMPO FEW018 SCT020 OVC030
  • 161025Z AUTO 21013KT 9999 OVC015 06/03 Q1010 WHT 22012KT 9999 FEW020 OVC030 TEMPO FEW018 SCT020 OVC030
  • 160955Z AUTO 21016KT 9999 OVC016 06/03 Q1010 WHT 22012KT 9999 FEW020 OVC030 TEMPO FEW018 SCT020 OVC030

TAF TAF EHEH
Valid from the 16 at 12:00 until the 17 at 18:00 UTC


161128Z 1612/1718 20014KT 9999 FEW016 SCT020 BKN030
TEMPO 1610/1620 FEW012 SCT015 BKN020
TEMPO 1620/1624 22016G26KT 4000 RA SCT010 BKN015
BECMG 1623/1702 23009KT
TEMPO 1706/1718 27012G22KT 4000 SHRA SCT012 SCT018CB BKN025
PROB30 1707/1718 28016G30KT 2500 SHRASN TS SCT008 BKN012 BKN017CB
No reported NOTAMs for that airfield.



MET'MAP, your aeronautical weather chart ! - Copyright ORBIFLY December 2007 - Disclaimer

ORBIFLY MET'MAP TEAM :

Programming & Development : Alexandra Zaïnal
Concept & Development : Baudouin d'Aumeries
Co-Development & Prog : Marc-Olivier Méhu
Technical & hardware support : Manuel Goepfert

Contact : metmap@orbifly.com




SOURCES & CREDITS :

   NOAA